Time;durP1;ratioP1;P1;durP2;ratioP2;P2;SDS_P1;SDS_P2;PMS_P1;PMS_P2;Temp;Humidity;BMP_temperature;BMP_pressure;BME280_temperature;BME280_humidity;BME280_pressure;Samples;Min_cycle;Max_cycle;Signal;HPM_P1;HPM_P2
2023/03/07 00:01:36;;;;;;;17.43;12.63;;;;;;;2.13;92.89;95559.84;5053153;28;20271;-80
2023/03/07 00:04:02;;;;;;;17.17;12.53;;;;;;;2.07;93.79;95551.09;5043202;28;20182;-81
2023/03/07 00:06:27;;;;;;;16.47;12.93;;;;;;;2.09;93.22;95550.91;5053387;28;20608;-80
2023/03/07 00:08:56;;;;;;;15.33;12.37;;;;;;;2.17;92.88;95548.13;5053633;28;20240;-79
2023/03/07 00:11:21;;;;;;;14.67;12.33;;;;;;;2.04;92.46;95541.19;5053480;28;20193;-80
2023/03/07 00:13:46;;;;;;;17.00;13.10;;;;;;;2.23;92.95;95549.09;5053309;28;20197;-80
2023/03/07 00:16:15;;;;;;;14.67;13.07;;;;;;;2.04;93.74;95555.91;5053541;28;20661;-80
2023/03/07 00:18:40;;;;;;;16.43;12.93;;;;;;;2.22;92.23;95555.25;5053028;28;20205;-80
2023/03/07 00:21:09;;;;;;;16.07;12.57;;;;;;;2.13;92.58;95552.09;5053187;28;20612;-79
2023/03/07 00:23:37;;;;;;;15.70;12.47;;;;;;;2.17;92.95;95552.47;5050697;28;20252;-80
2023/03/07 00:26:05;;;;;;;17.33;12.40;;;;;;;2.20;92.60;95552.06;5052345;28;20217;-80
2023/03/07 00:28:31;;;;;;;13.60;11.90;;;;;;;2.18;92.72;95554.06;5053387;28;20196;-79
2023/03/07 00:31:02;;;;;;;14.27;11.83;;;;;;;2.13;92.32;95548.69;5051863;28;20213;-81
2023/03/07 00:33:28;;;;;;;13.90;10.83;;;;;;;2.18;92.20;95543.72;5054065;28;20252;-81
2023/03/07 00:35:59;;;;;;;15.03;11.67;;;;;;;2.16;92.49;95550.91;5054012;28;20242;-81
2023/03/07 00:38:25;;;;;;;15.43;11.80;;;;;;;2.13;92.72;95549.50;5054274;28;20228;-80
2023/03/07 00:40:59;;;;;;;14.87;10.83;;;;;;;2.10;92.04;95544.75;5052657;28;20577;-81
2023/03/07 00:43:25;;;;;;;14.37;11.73;;;;;;;2.21;91.86;95541.53;5052868;28;20202;-81
2023/03/07 00:45:50;;;;;;;14.70;11.83;;;;;;;2.20;91.16;95539.94;5053360;28;20285;-81
2023/03/07 00:48:17;;;;;;;15.57;11.50;;;;;;;2.21;91.45;95540.72;5054037;28;20276;-80
2023/03/07 00:50:42;;;;;;;16.00;11.63;;;;;;;2.20;91.98;95527.00;5053255;28;20210;-80
2023/03/07 00:53:08;;;;;;;14.37;11.23;;;;;;;2.20;91.69;95526.22;5053071;28;20194;-80
2023/03/07 00:55:33;;;;;;;14.27;10.90;;;;;;;2.22;91.74;95517.28;5052823;28;20186;-79
2023/03/07 00:57:59;;;;;;;13.53;11.30;;;;;;;2.18;91.48;95517.88;5052693;28;20650;-81
2023/03/07 01:00:24;;;;;;;16.97;11.63;;;;;;;2.17;91.86;95506.75;5052342;28;20668;-80
2023/03/07 01:02:50;;;;;;;15.67;11.80;;;;;;;2.19;91.08;95503.94;5052648;28;20197;-80
2023/03/07 01:05:16;;;;;;;16.17;12.23;;;;;;;2.17;91.23;95506.75;5052351;28;20598;-79
2023/03/07 01:07:41;;;;;;;14.13;11.43;;;;;;;2.22;90.74;95504.34;5052244;28;20190;-80
2023/03/07 01:10:07;;;;;;;15.13;11.60;;;;;;;2.22;90.79;95506.94;5052950;28;20218;-80
2023/03/07 01:12:32;;;;;;;13.23;11.23;;;;;;;2.14;91.10;95504.56;5051455;28;20190;-80
2023/03/07 01:14:57;;;;;;;14.30;10.73;;;;;;;2.12;91.25;95498.81;5051366;28;20239;-80
2023/03/07 01:17:23;;;;;;;15.57;11.50;;;;;;;2.13;90.63;95491.84;5052198;28;20190;-80
2023/03/07 01:19:48;;;;;;;14.13;11.10;;;;;;;2.09;90.04;95496.66;5052744;28;20194;-80
2023/03/07 01:22:13;;;;;;;16.03;11.03;;;;;;;2.09;89.93;95501.81;5053023;28;20550;-79
2023/03/07 01:24:39;;;;;;;13.87;11.20;;;;;;;2.13;89.69;95497.81;5051587;28;20596;-79
2023/03/07 01:27:04;;;;;;;15.13;11.30;;;;;;;2.12;88.79;95491.06;5052484;28;20720;-79
2023/03/07 01:29:29;;;;;;;13.63;11.43;;;;;;;2.14;88.42;95481.31;5052534;28;20210;-80
2023/03/07 01:31:55;;;;;;;15.53;11.27;;;;;;;2.00;88.90;95490.94;5051874;28;20197;-80
2023/03/07 01:34:20;;;;;;;16.57;11.27;;;;;;;2.06;88.50;95492.66;5050886;28;20198;-77
2023/03/07 01:36:46;;;;;;;14.50;11.40;;;;;;;2.03;88.21;95489.72;5052381;28;20224;-77
2023/03/07 01:39:14;;;;;;;14.67;10.63;;;;;;;2.22;87.27;95488.84;5052371;28;20658;-79
2023/03/07 01:41:40;;;;;;;15.40;11.23;;;;;;;2.12;86.90;95493.63;5051973;28;20196;-78
2023/03/07 01:44:20;;;;;;;13.90;11.20;;;;;;;2.14;87.40;95483.09;5051881;28;20198;-78
2023/03/07 01:46:47;;;;;;;13.83;10.67;;;;;;;2.12;87.30;95477.38;5052248;28;20204;-80
2023/03/07 01:49:27;;;;;;;13.30;10.47;;;;;;;2.15;87.29;95484.69;5050932;28;20221;-79
2023/03/07 01:52:00;;;;;;;15.80;11.07;;;;;;;2.14;86.58;95477.94;5051108;28;20352;-79
2023/03/07 01:54:27;;;;;;;14.60;11.00;;;;;;;2.07;86.91;95470.22;5051365;28;20193;-77
2023/03/07 01:56:53;;;;;;;14.40;11.47;;;;;;;2.16;87.13;95470.78;5051944;28;20198;-79
2023/03/07 01:59:26;;;;;;;13.80;11.17;;;;;;;2.24;86.39;95471.31;5052277;28;20265;-80
2023/03/07 02:01:52;;;;;;;12.37;9.93;;;;;;;2.25;86.83;95464.34;5051108;28;20213;-79
2023/03/07 02:04:25;;;;;;;13.93;10.63;;;;;;;2.25;86.15;95475.50;5052165;28;20217;-79
2023/03/07 02:06:50;;;;;;;11.63;10.43;;;;;;;2.17;86.11;95465.41;5052180;28;20285;-79
2023/03/07 02:09:19;;;;;;;13.97;10.97;;;;;;;2.20;85.87;95452.06;5052265;28;20304;-81
2023/03/07 02:11:46;;;;;;;11.70;10.17;;;;;;;2.15;86.65;95464.03;5052246;28;20194;-80
2023/03/07 02:14:11;;;;;;;14.10;11.47;;;;;;;2.17;86.23;95456.88;5052247;28;20285;-80
2023/03/07 02:16:37;;;;;;;12.27;10.70;;;;;;;2.18;86.86;95461.00;5051657;28;20229;-80
2023/03/07 02:19:12;;;;;;;12.90;10.80;;;;;;;2.21;86.68;95461.41;5050770;28;20240;-81
2023/03/07 02:21:46;;;;;;;15.63;11.43;;;;;;;2.13;86.99;95460.84;5052028;28;20201;-80
2023/03/07 02:24:42;;;;;;;15.43;11.20;;;;;;;2.07;86.89;95450.31;5052628;28;20182;-78
2023/03/07 02:27:07;;;;;;;13.37;11.63;;;;;;;2.14;86.49;95457.25;5053183;28;20202;-80
2023/03/07 02:29:33;;;;;;;14.37;11.40;;;;;;;2.10;86.69;95464.66;5055534;28;20693;-80
2023/03/07 02:31:58;;;;;;;12.43;11.10;;;;;;;2.15;87.26;95464.03;5055278;28;20210;-80
2023/03/07 02:34:26;;;;;;;15.47;11.20;;;;;;;2.09;87.59;95460.47;5055072;28;20658;-80
2023/03/07 02:36:58;;;;;;;14.93;10.67;;;;;;;2.11;87.87;95455.09;5055247;28;20552;-80
2023/03/07 02:39:29;;;;;;;16.13;11.00;;;;;;;2.00;87.63;95451.38;5055752;28;20213;-80
2023/03/07 02:41:56;;;;;;;14.53;11.30;;;;;;;2.05;87.97;95449.75;5055363;28;20210;-80
2023/03/07 02:44:21;;;;;;;14.70;11.27;;;;;;;2.09;87.39;95453.50;5053532;28;20596;-80
2023/03/07 02:46:46;;;;;;;13.40;10.87;;;;;;;2.14;87.37;95447.72;5055320;28;20224;-80
2023/03/07 02:49:12;;;;;;;12.30;10.60;;;;;;;2.16;87.32;95437.19;5054470;28;20522;-79
2023/03/07 02:51:38;;;;;;;14.50;11.57;;;;;;;2.29;86.12;95443.06;5055151;28;20728;-79
2023/03/07 02:54:03;;;;;;;15.50;11.53;;;;;;;2.26;86.48;95435.72;5054547;28;20190;-80
2023/03/07 02:56:30;;;;;;;14.87;11.60;;;;;;;2.24;86.22;95431.75;5054053;28;20252;-80
2023/03/07 02:58:55;;;;;;;12.93;11.07;;;;;;;2.17;86.16;95426.66;5054946;28;20190;-80
2023/03/07 03:01:20;;;;;;;16.83;11.10;;;;;;;2.16;86.54;95430.22;5054765;28;20584;-81
2023/03/07 03:03:46;;;;;;;14.33;11.80;;;;;;;2.18;86.02;95430.00;5054631;28;20206;-80
2023/03/07 03:06:11;;;;;;;14.30;11.50;;;;;;;2.15;86.63;95422.66;5054422;28;20616;-81
2023/03/07 03:08:36;;;;;;;15.37;11.60;;;;;;;2.07;86.88;95421.91;5054721;28;20248;-81
2023/03/07 03:11:02;;;;;;;17.13;12.27;;;;;;;2.18;87.43;95424.81;5054941;28;20230;-81
2023/03/07 03:13:27;;;;;;;13.93;11.73;;;;;;;2.06;87.21;95425.47;5054624;28;20198;-81
2023/03/07 03:15:56;;;;;;;14.60;11.67;;;;;;;2.18;87.44;95424.81;5054368;28;20204;-80
2023/03/07 03:18:29;;;;;;;15.17;12.10;;;;;;;2.13;87.43;95430.63;5054526;28;20190;-80
2023/03/07 03:20:55;;;;;;;14.77;11.87;;;;;;;2.23;86.47;95425.03;5054896;28;20182;-80
2023/03/07 03:23:20;;;;;;;14.60;11.60;;;;;;;2.24;86.99;95421.41;5053088;28;20202;-80
2023/03/07 03:25:56;;;;;;;14.70;11.97;;;;;;;2.15;87.29;95410.53;5053517;28;20230;-80
2023/03/07 03:28:21;;;;;;;14.10;11.47;;;;;;;2.23;86.81;95415.44;5054147;28;20193;-80
2023/03/07 03:30:59;;;;;;;16.83;12.43;;;;;;;2.15;88.00;95414.91;5054328;28;20213;-81
2023/03/07 03:33:26;;;;;;;15.43;11.40;;;;;;;1.99;88.40;95414.41;5053089;28;20263;-81
2023/03/07 03:35:51;;;;;;;14.30;11.10;;;;;;;2.10;88.12;95410.38;5053116;28;20217;-80
2023/03/07 03:38:17;;;;;;;15.10;12.10;;;;;;;2.09;88.00;95406.19;5053867;28;20259;-80
2023/03/07 03:40:42;;;;;;;15.60;11.87;;;;;;;2.17;87.04;95411.13;5054264;28;20201;-81
2023/03/07 03:43:07;;;;;;;17.60;12.47;;;;;;;2.18;87.03;95409.31;5052847;28;20229;-80
2023/03/07 03:45:33;;;;;;;16.30;12.13;;;;;;;2.16;86.91;95401.78;5053856;28;20277;-80
2023/03/07 03:47:58;;;;;;;14.73;11.87;;;;;;;2.18;86.68;95407.53;5053546;28;20597;-80
2023/03/07 03:50:23;;;;;;;14.63;11.77;;;;;;;2.16;86.67;95399.22;5053550;28;20691;-81
2023/03/07 03:52:48;;;;;;;14.93;11.97;;;;;;;2.24;86.87;95405.91;5052863;28;20651;-81
2023/03/07 03:55:14;;;;;;;14.53;11.50;;;;;;;2.18;86.65;95406.72;5053708;28;20264;-79
2023/03/07 03:57:39;;;;;;;16.43;11.80;;;;;;;2.06;87.14;95402.22;5053496;28;20190;-81
2023/03/07 04:00:07;;;;;;;16.33;11.93;;;;;;;2.19;86.57;95409.13;5053798;28;20251;-81
2023/03/07 04:02:33;;;;;;;13.30;11.43;;;;;;;2.20;86.34;95404.75;5059480;28;20585;-82
2023/03/07 04:04:58;;;;;;;14.67;11.97;;;;;;;2.12;87.14;95394.66;5053406;28;20186;-81
2023/03/07 04:07:24;;;;;;;16.03;12.50;;;;;;;2.17;86.55;95400.81;5052041;28;20190;-81
2023/03/07 04:09:49;;;;;;;16.27;12.63;;;;;;;2.15;86.36;95395.03;5053280;28;20221;-80
2023/03/07 04:12:14;;;;;;;16.90;12.57;;;;;;;2.05;87.34;95392.91;5053345;28;20198;-81
2023/03/07 04:14:40;;;;;;;14.77;12.03;;;;;;;2.13;87.04;95397.03;5053577;28;20273;-82
2023/03/07 04:17:06;;;;;;;19.03;12.17;;;;;;;2.08;87.41;95387.31;5053240;28;20190;-81
2023/03/07 04:19:31;;;;;;;14.97;11.43;;;;;;;2.09;87.13;95388.91;5053413;28;20274;-81
2023/03/07 04:21:57;;;;;;;15.37;12.03;;;;;;;2.08;86.93;95384.72;5053220;28;20197;-79
2023/03/07 04:24:22;;;;;;;14.33;11.17;;;;;;;2.02;86.96;95390.72;5052183;28;20312;-81
2023/03/07 04:26:47;;;;;;;16.07;12.57;;;;;;;1.95;87.80;95381.44;5051642;28;20190;-81
2023/03/07 04:29:13;;;;;;;15.77;12.53;;;;;;;1.97;88.33;95375.06;5052278;28;20202;-80
2023/03/07 04:31:39;;;;;;;14.63;12.13;;;;;;;1.91;88.57;95378.47;5051429;28;20221;-81
2023/03/07 04:34:04;;;;;;;15.20;11.60;;;;;;;1.89;87.85;95377.91;5052680;28;20225;-80
2023/03/07 04:36:29;;;;;;;16.80;12.10;;;;;;;1.87;88.30;95384.25;5053188;28;20267;-80
2023/03/07 04:38:55;;;;;;;16.70;12.53;;;;;;;1.86;87.79;95377.50;5052963;28;20260;-79
2023/03/07 04:41:24;;;;;;;15.17;11.73;;;;;;;1.92;88.38;95374.91;5051915;28;20689;-80
2023/03/07 04:43:50;;;;;;;16.20;12.77;;;;;;;1.96;87.89;95381.22;5052857;28;20255;-80
2023/03/07 04:46:17;;;;;;;15.43;12.13;;;;;;;1.95;87.70;95377.06;5053207;28;20194;-80
2023/03/07 04:48:42;;;;;;;18.93;11.90;;;;;;;2.01;87.34;95375.44;5052934;28;20194;-80
2023/03/07 04:51:08;;;;;;;15.87;12.63;;;;;;;1.97;86.75;95371.69;5052681;28;20271;-80
2023/03/07 04:53:33;;;;;;;16.67;12.30;;;;;;;1.93;86.47;95373.91;5052634;28;20190;-79
2023/03/07 04:56:00;;;;;;;14.37;11.70;;;;;;;1.92;87.04;95371.53;5053234;28;20197;-79
2023/03/07 04:58:29;;;;;;;16.00;12.37;;;;;;;1.95;86.98;95365.94;5052703;28;20264;-80
2023/03/07 05:00:57;;;;;;;17.03;12.47;;;;;;;2.01;86.22;95367.69;5052442;28;20182;-79
2023/03/07 05:03:23;;;;;;;19.37;12.43;;;;;;;1.94;87.29;95364.38;5039572;28;20217;-80
2023/03/07 05:05:49;;;;;;;17.70;11.83;;;;;;;2.02;86.19;95358.94;5052884;28;20198;-80
2023/03/07 05:08:14;;;;;;;16.63;13.03;;;;;;;2.02;85.72;95356.34;5052353;28;20327;-80
2023/03/07 05:10:40;;;;;;;16.60;12.13;;;;;;;1.99;85.39;95361.94;5052375;28;20693;-80
2023/03/07 05:13:06;;;;;;;15.90;12.07;;;;;;;2.04;85.94;95368.06;5051999;28;20251;-80
2023/03/07 05:15:32;;;;;;;14.60;11.80;;;;;;;2.07;85.86;95361.69;5052299;28;20903;-80
2023/03/07 05:17:57;;;;;;;16.03;12.00;;;;;;;2.03;85.02;95356.16;5052065;28;20197;-81
2023/03/07 05:20:23;;;;;;;17.10;12.67;;;;;;;2.01;85.31;95365.88;5052899;28;20365;-81
2023/03/07 05:22:48;;;;;;;15.10;11.30;;;;;;;2.10;85.27;95361.28;5052280;28;20221;-81
2023/03/07 05:25:13;;;;;;;16.33;12.23;;;;;;;2.08;85.30;95353.72;5051478;28;20197;-80
2023/03/07 05:27:39;;;;;;;14.13;11.10;;;;;;;2.00;85.61;95353.19;5052264;28;20347;-81
2023/03/07 05:30:05;;;;;;;19.43;12.40;;;;;;;2.07;84.90;95351.34;5051724;28;20220;-80
2023/03/07 05:32:31;;;;;;;16.90;13.47;;;;;;;2.16;84.22;95346.72;5051486;28;20194;-80
2023/03/07 05:34:57;;;;;;;16.10;11.77;;;;;;;2.18;84.53;95350.69;5050833;28;20221;-80
2023/03/07 05:37:22;;;;;;;15.50;11.87;;;;;;;2.17;83.67;95348.31;5052642;28;20635;-80
2023/03/07 05:39:48;;;;;;;14.77;11.40;;;;;;;2.24;83.84;95343.88;5052285;28;20197;-80
2023/03/07 05:42:14;;;;;;;14.00;12.23;;;;;;;2.14;83.56;95349.50;5050919;28;20186;-80
2023/03/07 05:44:40;;;;;;;15.67;12.10;;;;;;;2.16;84.23;95347.53;5048219;28;20205;-80
2023/03/07 05:47:05;;;;;;;14.27;12.17;;;;;;;2.08;83.24;95351.16;5052445;28;20590;-77
2023/03/07 05:49:31;;;;;;;20.20;13.00;;;;;;;2.08;83.39;95358.09;5052079;28;20209;-78
2023/03/07 05:51:56;;;;;;;13.70;12.13;;;;;;;2.00;83.26;95346.25;5051935;28;20192;-81
2023/03/07 05:54:21;;;;;;;16.80;12.60;;;;;;;2.03;83.37;95347.59;5051622;28;20205;-80
2023/03/07 05:56:47;;;;;;;12.97;11.37;;;;;;;2.08;83.57;95350.34;5052090;28;20202;-79
2023/03/07 05:59:14;;;;;;;13.97;11.13;;;;;;;2.08;83.54;95351.16;5053445;28;20190;-80
2023/03/07 06:01:40;;;;;;;14.93;12.07;;;;;;;2.12;82.75;95350.75;5054807;28;20200;-81
2023/03/07 06:04:05;;;;;;;19.37;11.07;;;;;;;2.11;82.75;95355.13;5054997;28;20189;-81
2023/03/07 06:06:31;;;;;;;14.13;11.10;;;;;;;2.05;83.42;95349.00;5055592;28;20559;-81
2023/03/07 06:08:57;;;;;;;15.63;10.73;;;;;;;2.15;82.71;95350.31;5055691;28;20194;-80
2023/03/07 06:11:22;;;;;;;14.87;11.37;;;;;;;2.15;82.41;95347.72;5055594;28;20182;-80
2023/03/07 06:13:47;;;;;;;13.60;10.70;;;;;;;2.07;82.39;95344.38;5055958;28;20724;-80
2023/03/07 06:16:13;;;;;;;12.63;10.87;;;;;;;2.09;83.29;95341.59;5054583;28;20190;-80
2023/03/07 06:18:38;;;;;;;15.40;11.40;;;;;;;2.13;82.42;95332.41;5055133;28;20221;-80
2023/03/07 06:21:06;;;;;;;13.73;10.97;;;;;;;2.21;81.55;95328.81;5055827;28;20200;-80
2023/03/07 06:23:34;;;;;;;12.73;11.30;;;;;;;2.24;80.88;95330.94;5055369;28;20202;-79
2023/03/07 06:26:00;;;;;;;17.77;13.93;;;;;;;2.15;81.06;95329.63;5054263;28;20698;-79
2023/03/07 06:28:26;;;;;;;15.30;12.20;;;;;;;2.14;81.20;95328.84;5060936;28;20201;-80
2023/03/07 06:30:52;;;;;;;14.60;12.20;;;;;;;2.20;80.56;95332.38;5055202;28;20237;-80
2023/03/07 06:33:17;;;;;;;15.03;11.67;;;;;;;2.18;80.47;95332.59;5055226;28;20288;-79
2023/03/07 06:35:43;;;;;;;14.87;12.00;;;;;;;2.29;80.58;95326.72;5054959;28;20241;-80
2023/03/07 06:38:11;;;;;;;16.73;11.43;;;;;;;2.15;79.68;95324.47;5055133;28;20625;-79
2023/03/07 06:40:36;;;;;;;12.63;11.07;;;;;;;2.25;80.59;95328.16;5054131;28;20285;-78
2023/03/07 06:43:02;;;;;;;14.77;11.90;;;;;;;2.32;79.80;95341.03;5055059;28;20281;-79
2023/03/07 06:45:27;;;;;;;15.77;11.70;;;;;;;2.22;79.93;95331.19;5055114;28;20190;-79
2023/03/07 06:47:53;;;;;;;14.60;12.83;;;;;;;2.33;79.84;95332.28;5054727;28;20273;-79
2023/03/07 06:50:18;;;;;;;16.17;12.73;;;;;;;2.43;79.20;95330.81;5054578;28;20289;-79
2023/03/07 06:52:44;;;;;;;13.43;11.10;;;;;;;2.42;79.58;95331.81;5054430;28;20645;-79
2023/03/07 06:55:10;;;;;;;15.60;12.07;;;;;;;2.47;79.34;95334.56;5048988;28;20228;-79
2023/03/07 06:57:35;;;;;;;13.40;11.33;;;;;;;2.53;78.69;95339.88;5054960;28;20232;-79
2023/03/07 07:00:03;;;;;;;16.00;11.63;;;;;;;2.74;78.20;95337.69;5054623;28;20202;-77
2023/03/07 07:02:28;;;;;;;14.43;12.97;;;;;;;2.75;79.04;95341.06;5054442;28;20645;-78
2023/03/07 07:04:53;;;;;;;14.30;12.47;;;;;;;2.81;78.79;95337.63;5054626;28;20251;-78
2023/03/07 07:07:19;;;;;;;17.60;13.00;;;;;;;3.06;81.11;95335.81;5054415;28;20190;-79
2023/03/07 07:09:44;;;;;;;12.83;10.80;;;;;;;3.01;77.83;95340.81;5054311;28;20732;-78
2023/03/07 07:12:09;;;;;;;14.23;11.70;;;;;;;3.04;77.15;95339.59;5053935;28;20339;-79
2023/03/07 07:14:35;;;;;;;13.03;11.30;;;;;;;2.96;77.35;95342.47;5053300;28;20190;-79
2023/03/07 07:17:00;;;;;;;12.50;10.63;;;;;;;3.02;76.94;95344.19;5054234;28;20198;-79
2023/03/07 07:19:26;;;;;;;14.13;11.13;;;;;;;3.06;77.06;95345.38;5054041;28;20525;-80
2023/03/07 07:21:52;;;;;;;14.50;10.93;;;;;;;3.19;76.71;95327.09;5055824;28;20209;-82
2023/03/07 07:24:18;;;;;;;12.30;10.43;;;;;;;3.96;100.00;95328.91;5055866;28;20220;-82
2023/03/07 07:26:43;;;;;;;13.27;11.43;;;;;;;3.94;76.83;95327.56;5055538;28;20197;-79
2023/03/07 07:29:09;;;;;;;13.37;10.10;;;;;;;3.58;75.41;95331.00;5056120;28;20185;-79
2023/03/07 07:31:34;;;;;;;16.23;13.07;;;;;;;3.58;75.24;95329.22;5055259;28;20295;-80
2023/03/07 07:33:59;;;;;;;20.53;18.57;;;;;;;3.57;74.44;95326.81;5054180;28;20240;-79
2023/03/07 07:36:25;;;;;;;18.37;16.50;;;;;;;3.68;74.67;95333.84;5053567;28;20232;-78
2023/03/07 07:38:50;;;;;;;16.37;14.77;;;;;;;3.66;73.49;95335.91;5054004;28;20579;-79
2023/03/07 07:41:17;;;;;;;20.30;18.53;;;;;;;3.88;74.01;95334.41;5053759;28;20285;-79
2023/03/07 07:43:45;;;;;;;17.17;15.47;;;;;;;3.90;73.34;95324.59;5053921;28;20190;-77
2023/03/07 07:46:11;;;;;;;14.60;11.53;;;;;;;4.00;73.50;95335.25;5054744;28;20190;-80
2023/03/07 07:48:36;;;;;;;13.80;10.33;;;;;;;3.97;72.93;95327.09;5053313;28;20662;-79
2023/03/07 07:51:02;;;;;;;13.17;11.07;;;;;;;3.87;73.25;95329.44;5053277;28;20652;-79
2023/03/07 07:53:28;;;;;;;12.23;10.17;;;;;;;4.05;72.51;95331.97;5052121;28;20202;-79
2023/03/07 07:55:53;;;;;;;22.37;20.47;;;;;;;4.03;72.58;95327.00;5053527;28;20268;-79
2023/03/07 07:58:18;;;;;;;19.57;17.83;;;;;;;4.14;72.08;95328.03;5052138;28;20178;-78
2023/03/07 08:00:44;;;;;;;21.63;19.73;;;;;;;4.17;72.21;95328.41;5053497;28;20204;-79
2023/03/07 08:03:10;;;;;;;18.87;17.00;;;;;;;4.31;71.41;95326.38;5053550;28;20190;-79
2023/03/07 08:05:35;;;;;;;18.10;16.43;;;;;;;4.32;70.64;95317.59;5053126;28;20202;-78
2023/03/07 08:08:01;;;;;;;18.80;17.20;;;;;;;4.36;71.49;95325.72;5053485;28;20232;-79
2023/03/07 08:10:26;;;;;;;16.23;14.63;;;;;;;4.44;71.31;95322.81;5053361;28;20198;-77
2023/03/07 08:12:51;;;;;;;14.40;12.90;;;;;;;4.59;70.17;95323.16;5052022;28;20608;-75
2023/03/07 08:15:20;;;;;;;13.93;12.10;;;;;;;4.52;70.54;95312.88;5053223;28;20198;-76
2023/03/07 08:17:45;;;;;;;15.60;14.20;;;;;;;4.68;69.82;95311.41;5053035;28;20255;-74
2023/03/07 08:20:11;;;;;;;13.77;12.40;;;;;;;4.70;69.86;95316.38;5052057;28;20190;-74
2023/03/07 08:22:36;;;;;;;12.73;10.30;;;;;;;4.67;69.04;95311.66;5051967;28;20260;-75
2023/03/07 08:25:06;;;;;;;11.90;10.63;;;;;;;4.79;68.92;95317.66;5050405;28;20200;-74
2023/03/07 08:27:32;;;;;;;13.00;10.67;;;;;;;4.77;68.87;95320.47;5052441;28;20190;-76
2023/03/07 08:29:59;;;;;;;12.80;11.53;;;;;;;5.05;68.33;95309.38;5053268;28;20550;-75
2023/03/07 08:32:25;;;;;;;11.23;10.00;;;;;;;5.37;67.46;95314.94;5052203;28;20196;-76
2023/03/07 08:34:51;;;;;;;11.37;10.13;;;;;;;5.42;66.62;95309.84;5052493;28;20226;-75
2023/03/07 08:37:16;;;;;;;12.37;10.07;;;;;;;5.49;66.57;95312.31;5051226;28;20194;-76
2023/03/07 08:39:41;;;;;;;14.27;10.20;;;;;;;5.54;66.43;95312.41;5052864;28;20678;-75
2023/03/07 08:42:07;;;;;;;10.67;9.57;;;;;;;5.66;65.43;95300.97;5053132;28;20190;-76
2023/03/07 08:44:33;;;;;;;11.37;10.17;;;;;;;5.76;64.55;95302.97;5052658;28;20674;-76
2023/03/07 08:46:58;;;;;;;14.03;11.37;;;;;;;5.77;64.65;95304.53;5053036;28;20232;-76
2023/03/07 08:49:24;;;;;;;13.33;11.93;;;;;;;5.77;64.66;95302.72;5052622;28;20297;-76
2023/03/07 08:51:49;;;;;;;19.10;10.73;;;;;;;5.87;64.20;95294.34;5051883;28;20208;-76
2023/03/07 08:54:15;;;;;;;12.47;10.67;;;;;;;5.77;63.70;95312.34;5047624;28;20194;-76
2023/03/07 08:56:40;;;;;;;12.80;11.03;;;;;;;5.64;63.31;95300.41;5051350;28;20196;-75
2023/03/07 08:59:06;;;;;;;10.90;9.80;;;;;;;5.56;64.00;95290.38;5052414;28;20194;-77
2023/03/07 09:01:31;;;;;;;11.70;10.50;;;;;;;5.47;64.27;95290.97;5052194;28;20194;-75
2023/03/07 09:03:57;;;;;;;12.50;10.07;;;;;;;5.60;63.63;95290.72;5052262;28;20198;-76
2023/03/07 09:06:22;;;;;;;11.07;9.90;;;;;;;5.75;63.49;95291.75;5051953;28;20201;-76
2023/03/07 09:08:49;;;;;;;13.90;10.40;;;;;;;5.64;62.63;95286.63;5052266;28;20197;-75
2023/03/07 09:11:16;;;;;;;11.27;10.10;;;;;;;5.47;62.69;95293.56;5052955;28;20230;-76
2023/03/07 09:13:41;;;;;;;13.23;9.57;;;;;;;5.37;62.92;95281.97;5052057;28;20653;-77
2023/03/07 09:16:07;;;;;;;10.43;8.90;;;;;;;5.70;62.46;95296.88;5051516;28;20186;-76
2023/03/07 09:18:33;;;;;;;10.40;9.27;;;;;;;5.72;62.06;95287.03;5051618;28;20178;-76
2023/03/07 09:21:00;;;;;;;10.37;9.10;;;;;;;5.69;62.00;95284.91;5052508;28;20286;-75
2023/03/07 09:23:25;;;;;;;11.23;9.47;;;;;;;6.01;61.25;95285.25;5051270;28;20568;-75
2023/03/07 09:25:51;;;;;;;16.40;12.30;;;;;;;5.89;59.65;95279.31;5051642;28;20199;-75
2023/03/07 09:28:16;;;;;;;13.73;12.43;;;;;;;5.66;58.89;95280.19;5051532;28;20185;-76
2023/03/07 09:30:41;;;;;;;11.60;10.40;;;;;;;5.32;58.61;95274.09;5052052;28;20217;-75
2023/03/07 09:33:07;;;;;;;11.00;9.97;;;;;;;5.41;58.21;95283.06;5051888;28;20706;-76
2023/03/07 09:35:32;;;;;;;10.43;9.50;;;;;;;5.42;58.08;95284.66;5055483;28;20296;-75
2023/03/07 09:37:58;;;;;;;12.23;10.43;;;;;;;5.72;57.83;95287.03;5055914;28;20292;-75
2023/03/07 09:40:26;;;;;;;10.37;9.37;;;;;;;5.80;57.34;95281.44;5055081;28;20619;-77
2023/03/07 09:43:17;;;;;;;9.70;8.70;;;;;;;5.96;57.63;95294.78;5040092;28;20186;-76
2023/03/07 09:45:54;;;;;;;10.57;8.80;;;;;;;5.82;58.00;95286.44;5055628;28;20189;-77
2023/03/07 09:48:42;;;;;;;9.07;8.07;;;;;;;5.71;57.31;95290.66;5052512;28;20182;-76
2023/03/07 09:51:34;;;;;;;8.77;7.90;;;;;;;5.35;57.94;95284.00;5054224;28;20209;-76
2023/03/07 09:54:10;;;;;;;9.30;7.57;;;;;;;5.59;58.05;95289.91;5050851;28;20208;-76
2023/03/07 09:56:48;;;;;;;9.40;7.60;;;;;;;5.46;59.23;95286.81;5055694;28;20570;-75
2023/03/07 09:59:55;;;;;;;69.73;65.53;;;;;;;5.35;59.93;95286.59;5055931;28;20186;-75
2023/03/07 10:02:30;;;;;;;145.80;135.90;;;;;;;5.30;62.95;95272.72;5037135;28;20193;-75
2023/03/07 10:05:17;;;;;;;93.90;87.03;;;;;;;5.13;63.07;95274.47;5055891;28;20197;-75
2023/03/07 10:07:42;;;;;;;44.30;38.43;;;;;;;5.06;63.55;95277.19;5055378;28;20198;-76
2023/03/07 10:10:16;;;;;;;23.63;16.70;;;;;;;4.89;64.50;95277.13;5041863;28;20214;-76
2023/03/07 10:12:53;;;;;;;292.93;274.40;;;;;;;4.87;66.09;95271.34;5054378;28;20208;-76
2023/03/07 10:15:44;;;;;;;20.30;14.83;;;;;;;4.97;64.27;95270.78;5056096;28;20201;-75
2023/03/07 10:18:26;;;;;;;10.90;9.80;;;;;;;4.89;63.12;95271.94;5040923;28;20181;-75
2023/03/07 10:21:13;;;;;;;12.97;11.47;;;;;;;4.97;63.42;95273.38;5055674;28;20193;-76
2023/03/07 10:23:56;;;;;;;13.83;10.10;;;;;;;5.07;62.91;95270.22;5054888;28;20214;-75
2023/03/07 10:26:31;;;;;;;11.17;10.10;;;;;;;4.83;63.62;95261.66;5054669;28;20182;-77
2023/03/07 10:29:00;;;;;;;12.57;11.37;;;;;;;4.96;64.26;95264.00;5057757;28;20181;-79
2023/03/07 10:31:35;;;;;;;14.87;13.57;;;;;;;4.86;64.89;95267.19;5056410;28;20225;-78
2023/03/07 10:34:14;;;;;;;14.47;13.20;;;;;;;4.93;64.57;95257.47;5058786;28;20208;-78
2023/03/07 10:36:43;;;;;;;13.83;12.63;;;;;;;5.05;63.54;95267.84;5058576;28;20194;-77
2023/03/07 10:39:29;;;;;;;13.43;12.03;;;;;;;5.02;63.25;95258.69;5051836;28;20654;-77
2023/03/07 10:41:55;;;;;;;15.43;14.07;;;;;;;4.75;63.66;95249.03;5051892;28;20191;-77
2023/03/07 10:44:21;;;;;;;15.50;13.90;;;;;;;4.68;64.47;95248.38;5053055;28;20682;-75
2023/03/07 10:46:53;;;;;;;16.17;14.57;;;;;;;4.80;64.21;95249.91;5054842;28;20198;-76
2023/03/07 10:49:24;;;;;;;16.00;14.33;;;;;;;4.83;63.54;95246.88;5054378;28;20186;-76
2023/03/07 10:52:11;;;;;;;10.63;9.47;;;;;;;4.92;61.80;95245.50;5052804;28;20210;-76
2023/03/07 10:54:37;;;;;;;9.97;8.97;;;;;;;5.02;61.22;95242.31;5054844;28;20599;-75
2023/03/07 10:57:17;;;;;;;9.93;8.93;;;;;;;4.92;60.83;95239.50;5053521;28;20686;-76
2023/03/07 10:59:49;;;;;;;13.63;12.43;;;;;;;4.80;60.37;95241.34;5054757;28;20232;-76
2023/03/07 11:02:43;;;;;;;14.67;13.37;;;;;;;4.71;60.50;95234.94;5054624;28;20214;-76
2023/03/07 11:05:31;;;;;;;12.00;10.93;;;;;;;4.73;61.06;95232.91;5041036;28;20213;-76
2023/03/07 11:07:58;;;;;;;12.47;11.33;;;;;;;4.70;60.87;95243.72;5047009;28;20246;-76
2023/03/07 11:10:31;;;;;;;13.30;12.07;;;;;;;4.71;60.59;95240.13;5054291;28;20206;-75
2023/03/07 11:12:57;;;;;;;14.37;13.07;;;;;;;4.90;60.02;95237.13;5054287;28;20181;-77
2023/03/07 11:15:23;;;;;;;13.63;12.43;;;;;;;4.79;59.99;95242.38;5036218;28;20190;-78
2023/03/07 11:17:50;;;;;;;13.30;12.03;;;;;;;4.87;60.28;95224.63;5054234;28;20197;-77
2023/03/07 11:20:22;;;;;;;14.97;13.50;;;;;;;4.84;59.56;95224.31;5054208;28;20213;-77
2023/03/07 11:22:49;;;;;;;13.83;12.53;;;;;;;4.74;59.61;95227.47;5053485;28;20231;-78
2023/03/07 11:25:24;;;;;;;14.77;12.00;;;;;;;4.75;59.84;95221.25;5054162;28;20202;-78
2023/03/07 11:27:56;;;;;;;12.40;11.23;;;;;;;4.72;58.71;95219.13;5053085;28;20182;-78
2023/03/07 11:30:24;;;;;;;11.17;10.07;;;;;;;4.62;59.21;95220.75;5054080;28;20244;-77